METAR Analyzer

一覧表示

Hello, Guest. (Login)

CYYZ/YYZ  -  トロント・ピアソン

No data in
2022-09-30 04:23 ~ 2022-09-30 06:23 (UTC)

CYOW/YOW  -  オタワ・マクドナルド・カルティエ

観測日時
2022-09-30 05:00 (UTC) (83分前)
気温
4
露点
3
湿数
1
相対湿度
93.2%
QNH
1029.5hPa
推定現地気圧
1015.6hPa
推定海面気圧
1030.1hPa
体感温度
-1.3
(無風時)
7.4
HI
2.9
気温前日比
-5
体感温度前日比
-0.7
HI前日比
-5
水平視程
>15SM
鉛直視程
データなし
雲底高度
No dense clouds
V/I
VMC (VFR)
RVR
No RVR data
卓越風
2kt from 210°
ガスト
No gust
降水
報告なし
その他の天気
報告なし
少しの(1/8) 片層雲 @ 400ft AGL

CYOW 300500Z 21002KT 15SM FEW004 04/03 A3040 RMK SF1 SF TR SLP302

CYUL/YUL  -  モントリオール・ピエール・エリオット・トルドー

観測日時
2022-09-30 05:00 (UTC) (83分前)
気温
7
露点
4
湿数
3
相対湿度
81.2%
QNH
1029.1hPa
推定現地気圧
1024.7hPa
推定海面気圧
1029.2hPa
体感温度
2.5
(無風時)
10.2
HI
5.9
気温前日比
-4
体感温度前日比
+2.3
HI前日比
-4.1
水平視程
>15SM
鉛直視程
データなし
雲底高度
データなし
V/I
判定不可
RVR
No RVR data
卓越風
2kt from VRB
ガスト
No gust
降水
報告なし
その他の天気
快晴
報告なし

CYUL 300500Z VRB02KT 15SM SKC 07/04 A3039 RMK SLP296

CYVR/YVR  -  バンクーバー

観測日時
2022-09-30 05:00 (UTC) (83分前)
気温
13
露点
12
湿数
1
相対湿度
93.6%
QNH
1022.4hPa
推定現地気圧
1021.9hPa
推定海面気圧
1022.4hPa
体感温度
15.3
(無風時)
15.3
HI
12.8
気温前日比
-1
体感温度前日比
+9.3
HI前日比
-1.1
水平視程
>15SM
鉛直視程
データなし
雲底高度
No dense clouds
V/I
VMC (VFR)
RVR
No RVR data
卓越風
静穏
ガスト
No gust
降水
報告なし
その他の天気
報告なし
少しの(1/8) 高積雲 @ 12000ft AGL / 少しの(1/8) 高積雲 @ 14000ft AGL / 少しの(2/8) 巻雲 @ 22000ft AGL

CYVR 300500Z 00000KT 15SM FEW120 FEW140 FEW220 13/12 A3019 RMK AC1AC1CI2 AC TR AC TR SLP226

KJFK/JFK  -  ジョン・F・ケネディ

観測日時
2022-09-30 05:51 (UTC) (32分前)
気温
13.3
露点
7.2
湿数
6.1
相対湿度
66.5%
QNH
1027.4hPa
推定現地気圧
1026.9hPa
推定海面気圧
1027.4hPa
体感温度
5
(無風時)
15.2
HI
12.4
気温前日比
-2.3
体感温度前日比
-0.8
HI前日比
-2.4
水平視程
>10SM
鉛直視程
データなし
雲底高度
25000ft AGL
V/I
VMC (VFR)
RVR
No RVR data
卓越風
7kt from 20°
ガスト
No gust
降水
報告なし
その他の天気
報告なし
隙間のある雲 @ 25000ft AGL

KJFK 300551Z 02007KT 10SM BKN250 13/07 A3034 RMK AO2 SLP272 T01330072 10161 20133 57004

KLGA/LGA  -  ラガーディア

観測日時
2022-09-30 05:51 (UTC) (32分前)
気温
13.9
露点
5.6
湿数
8.3
相対湿度
57.3%
QNH
1027.1hPa
推定現地気圧
1026.4hPa
推定海面気圧
1027.1hPa
体感温度
5.4
(無風時)
15.5
HI
12.8
気温前日比
-1.7
体感温度前日比
-0.4
HI前日比
-1.9
水平視程
>10SM
鉛直視程
データなし
雲底高度
25000ft AGL
V/I
VMC (VFR)
RVR
No RVR data
卓越風
8kt from 30°
ガスト
No gust
降水
報告なし
その他の天気
報告なし
隙間のある雲 @ 25000ft AGL

KLGA 300551Z 03008KT 10SM BKN250 14/06 A3033 RMK AO2 SLP271 T01390056 10172 20139 58002

KEWR/EWR  -  ニューアーク・リバティー

観測日時
2022-09-30 05:51 (UTC) (32分前)
気温
11.7
露点
5.6
湿数
6.1
相対湿度
66.1%
QNH
1027.4hPa
推定現地気圧
1026.8hPa
推定海面気圧
1027.4hPa
体感温度
2.1
(無風時)
14
HI
10.7
気温前日比
-2.2
体感温度前日比
-1.3
HI前日比
-2.5
水平視程
>10SM
鉛直視程
データなし
雲底高度
25000ft AGL
V/I
VMC (VFR)
RVR
No RVR data
卓越風
9kt from 10°
ガスト
No gust
降水
報告なし
その他の天気
報告なし
隙間のある雲 @ 25000ft AGL

KEWR 300551Z 01009KT 10SM BKN250 12/06 A3034 RMK AO2 SLP271 T01170056 10161 20117 58003 $

KIAD/IAD  -  ワシントン・ダレス

観測日時
2022-09-30 05:52 (UTC) (31分前)
気温
12.2
露点
7.2
湿数
5
相対湿度
71.5%
QNH
1025.7hPa
推定現地気圧
1014.2hPa
推定海面気圧
1025.8hPa
体感温度
3.5
(無風時)
14.4
HI
11.3
気温前日比
+0.5
体感温度前日比
-1.5
HI前日比
+0.3
水平視程
>10SM
鉛直視程
データなし
雲底高度
25000ft AGL
V/I
VMC (VFR)
RVR
No RVR data
卓越風
7kt from 30°
ガスト
No gust
降水
報告なし
その他の天気
報告なし
隙間のある雲 @ 25000ft AGL

KIAD 300552Z 03007KT 10SM BKN250 12/07 A3029 RMK AO2 SLP257 T01220072 10167 20122 58007

KDTW/DTW  -  デトロイト・メトロポリタン・ウェイン・カウンティ

No data in
2022-09-30 04:23 ~ 2022-09-30 06:23 (UTC)

KDET/DET  -  コールマン・A・ヤング

観測日時
2022-09-30 05:53 (UTC) (30分前)
気温
8.3
露点
5
湿数
3.3
相対湿度
79.7%
QNH
1028.8hPa
推定現地気圧
1005.8hPa
推定海面気圧
1029.3hPa
体感温度
11.3
(無風時)
11.3
HI
7.3
気温前日比
-3.4
体感温度前日比
+6.1
HI前日比
-3.5
水平視程
7SM
鉛直視程
データなし
雲底高度
No dense clouds
V/I
VMC (VFR)
RVR
No RVR data
卓越風
静穏
ガスト
No gust
降水
報告なし
その他の天気
報告なし
目立った雲なし

KDET 300553Z 00000KT 7SM CLR 08/05 A3038 RMK AO2 SLP289 T00830050 10133 20083 58009 $

KMCO/MCO  -  オーランド

観測日時
2022-09-30 05:53 (UTC) (30分前)
気温
18.3
露点
14.4
湿数
3.9
相対湿度
78%
QNH
1007.1hPa
推定現地気圧
1003.6hPa
推定海面気圧
1007.0hPa
体感温度
8.8
(無風時)
19.4
HI
18.2
気温前日比
-3.6
体感温度前日比
-4.7
HI前日比
-4.5
水平視程
>10SM
鉛直視程
データなし
雲底高度
4800ft AGL
V/I
VMC (VFR)
RVR
No RVR data
卓越風
15kt from 300°
ガスト
No gust
降水
報告なし
その他の天気
報告なし
少しの雲 @ 2900ft AGL / 隙間のある雲 @ 4800ft AGL

KMCO 300553Z AUTO 30015KT 10SM FEW029 BKN048 18/14 A2974 RMK AO2 PK WND 29026/0505 SLP070 T01830144 10189 20178 58006 $

KMIA/MIA  -  マイアミ

観測日時
2022-09-30 05:53 (UTC) (30分前)
気温
22.2
露点
18.3
湿数
3.9
相対湿度
78.6%
QNH
1007.8hPa
推定現地気圧
1007.4hPa
推定海面気圧
1007.7hPa
体感温度
15.4
(無風時)
22.6
HI
22.5
気温前日比
-3.9
体感温度前日比
-4.9
HI前日比
-4.5
水平視程
>10SM
鉛直視程
データなし
雲底高度
No dense clouds
V/I
VMC (VFR)
RVR
No RVR data
卓越風
9kt from 330°
ガスト
No gust
降水
報告なし
その他の天気
報告なし
少しの雲 @ 2000ft AGL / 少しの雲 @ 4500ft AGL

KMIA 300553Z 33009KT 10SM FEW020 FEW045 22/18 A2976 RMK AO2 SLP078 T02220183 10283 20222 58001

KFLL/FLL  -  フォートローダーデール・ハリウッド

観測日時
2022-09-30 05:53 (UTC) (30分前)
気温
21.7
露点
18.3
湿数
3.4
相対湿度
81%
QNH
1007.5hPa
推定現地気圧
1005.1hPa
推定海面気圧
1007.4hPa
体感温度
14.8
(無風時)
22.3
HI
22
気温前日比
-5
体感温度前日比
-5.5
HI前日比
-7
水平視程
>10SM
鉛直視程
データなし
雲底高度
No dense clouds
V/I
VMC (VFR)
RVR
No RVR data
卓越風
9kt from 310°
ガスト
No gust
降水
報告なし
その他の天気
報告なし
目立った雲なし

KFLL 300553Z 31009KT 10SM CLR 22/18 A2975 RMK AO2 SLP072 T02170183 10272 20217 58004

KTPA/TPA  -  タンパ

観測日時
2022-09-30 05:53 (UTC) (30分前)
気温
データなし
露点
データなし
湿数
データなし
相対湿度
データなし
QNH
1009.5hPa
推定現地気圧
1008.5hPa
推定海面気圧
データなし
体感温度
データなし
HI
データなし
気温前日比
データなし
体感温度前日比
データなし
HI前日比
データなし
水平視程
データなし
鉛直視程
データなし
雲底高度
データなし
V/I
判定不可
RVR
No RVR data
卓越風
データなし
ガスト
データなし
降水
報告なし
その他の天気
報告なし
報告なし

KTPA 300553Z AUTO A2981 RMK AO2 SLP096 58007 PWINO

KORD/ORD  -  シカゴ・オヘア

No data in
2022-09-30 04:23 ~ 2022-09-30 06:23 (UTC)

KMSP/MSP  -  ミネアポリス・セントポール

観測日時
2022-09-30 05:53 (UTC) (30分前)
気温
13.3
露点
3.3
湿数
10
相対湿度
50.7%
QNH
1023.4hPa
推定現地気圧
992.6hPa
推定海面気圧
1023.4hPa
体感温度
4.8
(無風時)
15
HI
12
気温前日比
+3.9
体感温度前日比
+4.1
HI前日比
+4.1
水平視程
>10SM
鉛直視程
データなし
雲底高度
No dense clouds
V/I
VMC (VFR)
RVR
No RVR data
卓越風
8kt from 170°
ガスト
No gust
降水
報告なし
その他の天気
報告なし
少しの雲 @ 22000ft AGL

KMSP 300553Z 17008KT 10SM FEW220 13/03 A3022 RMK AO2 SLP234 T01330033 10183 20133 402110072 53001

KIAH/IAH  -  ヒューストン/ジョージ・ブッシュ・インターコンチネンタル

No data in
2022-09-30 04:23 ~ 2022-09-30 06:23 (UTC)

KDFW/DFW  -  ダラス・フォートワース

No data in
2022-09-30 04:23 ~ 2022-09-30 06:23 (UTC)

KAUS/AUS  -  オースティン・バーグストロム

観測日時
2022-09-30 05:53 (UTC) (30分前)
気温
16.7
露点
11.1
湿数
5.6
相対湿度
69.5%
QNH
1018.3hPa
推定現地気圧
998.5hPa
推定海面気圧
1018.0hPa
体感温度
17.9
(無風時)
17.9
HI
16.2
気温前日比
+1.1
体感温度前日比
+0.8
HI前日比
+1
水平視程
>10SM
鉛直視程
データなし
雲底高度
No dense clouds
V/I
VMC (VFR)
RVR
No RVR data
卓越風
静穏
ガスト
No gust
降水
報告なし
その他の天気
報告なし
目立った雲なし

KAUS 300553Z 00000KT 10SM CLR 17/11 A3007 RMK AO2 SLP176 T01670111 10311 20156 403330111 50003

KDEN/DEN  -  デンバー

No data in
2022-09-30 04:23 ~ 2022-09-30 06:23 (UTC)

KPHX/PHX  -  フェニックス・スカイハーバー

観測日時
2022-09-30 05:51 (UTC) (32分前)
気温
29.4
露点
10
湿数
19.4
相対湿度
29.9%
QNH
1011.9hPa
推定現地気圧
971.0hPa
推定海面気圧
1009.5hPa
体感温度
22.1
(無風時)
24.7
HI
28.2
気温前日比
-0.6
体感温度前日比
-0.6
HI前日比
-1.1
水平視程
>10SM
鉛直視程
データなし
雲底高度
No dense clouds
V/I
VMC (VFR)
RVR
No RVR data
卓越風
5kt from 130°
ガスト
No gust
降水
報告なし
その他の天気
報告なし
少しの雲 @ 20000ft AGL / 少しの雲 @ 25000ft AGL

KPHX 300551Z 13005KT 10SM FEW200 FEW250 29/10 A2988 RMK AO2 SLP099 T02940100 10367 20294 51008

KTUS/TUS  -  ツーソン

観測日時
2022-09-30 05:53 (UTC) (30分前)
気温
23.3
露点
15
湿数
8.3
相対湿度
59.6%
QNH
1016.9hPa
推定現地気圧
923.4hPa
推定海面気圧
1012.3hPa
体感温度
17.9
(無風時)
22.5
HI
23.2
気温前日比
+0.5
体感温度前日比
+2.4
HI前日比
+0.4
水平視程
>10SM
鉛直視程
データなし
雲底高度
No dense clouds
V/I
VMC (VFR)
RVR
No RVR data
卓越風
4kt from 110°
ガスト
No gust
降水
報告なし
その他の天気
報告なし
目立った雲なし

KTUS 300553Z 11004KT 10SM CLR 23/15 A3003 RMK AO2 SLP124 T02330150 10278 20228 58000

KSFO/SFO  -  サンフランシスコ

観測日時
2022-09-30 05:56 (UTC) (27分前)
気温
16.7
露点
12.8
湿数
3.9
相対湿度
77.7%
QNH
1013.2hPa
推定現地気圧
1012.7hPa
推定海面気圧
1013.2hPa
体感温度
8.6
(無風時)
18.1
HI
16.5
気温前日比
+0.6
体感温度前日比
-0.2
HI前日比
+0.4
水平視程
>10SM
鉛直視程
データなし
雲底高度
No dense clouds
V/I
VMC (VFR)
RVR
No RVR data
卓越風
8kt from 290°
ガスト
No gust
降水
報告なし
その他の天気
報告なし
目立った雲なし

KSFO 300556Z 29008KT 10SM CLR 17/13 A2992 RMK AO2 SLP131 T01670128 10217 20167 51001

KLAX/LAX  -  ロサンゼルス

観測日時
2022-09-30 05:53 (UTC) (30分前)
気温
20
露点
17.2
湿数
2.8
相対湿度
83.9%
QNH
1013.2hPa
推定現地気圧
1008.5hPa
推定海面気圧
1013.1hPa
体感温度
14.3
(無風時)
21
HI
20.2
気温前日比
-2.2
体感温度前日比
-2.3
HI前日比
-2.6
水平視程
>10SM
鉛直視程
データなし
雲底高度
No dense clouds
V/I
VMC (VFR)
RVR
No RVR data
卓越風
5kt from 250°
ガスト
No gust
降水
報告なし
その他の天気
報告なし
少しの雲 @ 1000ft AGL

KLAX 300553Z 25005KT 10SM FEW010 20/17 A2992 RMK AO2 SLP130 T02000172 10222 20200 51009

KSJC/SJC  -  サンノゼ

観測日時
2022-09-30 05:53 (UTC) (30分前)
気温
20
露点
12.2
湿数
7.8
相対湿度
60.8%
QNH
1013.2hPa
推定現地気圧
1010.9hPa
推定海面気圧
1013.1hPa
体感温度
20.1
(無風時)
20.1
HI
19.6
気温前日比
+1.7
体感温度前日比
+7.9
HI前日比
+1.2
水平視程
>10SM
鉛直視程
データなし
雲底高度
No dense clouds
V/I
VMC (VFR)
RVR
No RVR data
卓越風
静穏
ガスト
No gust
降水
報告なし
その他の天気
報告なし
目立った雲なし

KSJC 300553Z 00000KT 10SM CLR 20/12 A2992 RMK AO2 SLP131 T02000122 10272 20200 55001 $

226.5msec